Aérodrome :
LOGIN :

S'inscrire | Disclaimer

   EN    FR    IT 

 










Légende :    VFR   VFR Marginal   IFR   IFR Intensif   IFR Très Intensif
Visi : 
Plafond : 
>= 8 km
>= 3000ft
5 à 8 km
1000 à 3000 ft
1500m à 5 km
500 à 1000 ft
800 à 1500m
200 à 500 ft
< 800m
< 200 ft
Symboles :   Orages  Brouillard  Fortes neiges  Fortes précipitations  Vent > 20 kt
SIGMETs :   Divers  Orages  Givrage  Turbulence  Onde Orograph.  Cendres Volcan.






- Altitude de l'aérodrome : 121 ft
- Code IATA : HUY


EGNJ - Humberside

DERNIER METAR :
  • 200120Z AUTO 16006KT 9999 FEW049/// 03/02 Q1014

METARs EXPIRÉS :
  • 200050Z AUTO 17008KT 9999 NCD 04/02 Q1014
  • 200020Z AUTO 15009KT 9999 NCD 04/03 Q1015
  • 192350Z AUTO 16009KT 9999 NCD 05/03 Q1015
  • 192320Z AUTO 17012KT 9999 NCD 05/03 Q1015
  • 192250Z AUTO 17013KT 9999 NCD 05/03 Q1015
  • 192220Z AUTO 17011KT 9999 SCT022/// 05/03 Q1015

TAF TAF EGNJ
Valide du 20 à 00h jusqu'au 20 à 09h UTC


192256Z 2000/2009 17009KT 9999 FEW030
ATIS : +44 1652 682 020



MET'MAP, la Météo Aéronautique d'un coup d'oeil ! - Copyright ORBIFLY Décembre 2007 - Disclaimer

ORBIFLY MET'MAP TEAM :

Programmation & Développement : Alexandra Zaïnal
Conception & Développement : Baudouin d'Aumeries
Co-Programmation & Développement : Marc-Olivier Méhu
Soutien technique & logistique : Manuel Goepfert

Contact : metmap@orbifly.com




SOURCES & CREDITS :

   NOAA